Zerdevka, Russia
Current Conditions -  °F | °C
As of 12:00 AM on Tuesday 21 Oct 2014 (Local Time) from UUOO Reporting Station
Haze Haze  
Wind Chill: 50°   Ceiling: 600
Heat Index: 50°   Visibility: 3mi
Dew Point: 46°   Wind: 9mph
Humidity: 87%   Direction: 260°W
Pressure: 29.5"   Gusts: 16mph
Location:  51.87°N, 41.46°E
Report Text: UUOO 202100Z 26004G07MPS 5000 BR OVC006 10/08 Q0999 TEMPOOVC004 RMK 30290248
Loading
Personal Weather Stations






























Interactive Weather Map
Tropical Storm Tracking
New forecast layout! Learn more

10-Day Weather Forecast

Advertisements
Track Severe Weather on mobile